Time;durP1;ratioP1;P1;durP2;ratioP2;P2;SDS_P1;SDS_P2;PMS_P1;PMS_P2;Temp;Humidity;BMP_temperature;BMP_pressure;BME280_temperature;BME280_humidity;BME280_pressure;Samples;Min_cycle;Max_cycle;Signal;HPM_P1;HPM_P2
2021/04/07 00:00:17;;;;;;;22.35;21.02;;;1.50;85.50;;;;;;5132695;27;20305;-75
2021/04/07 00:02:44;;;;;;;23.15;21.77;;;1.50;83.80;;;;;;5133283;27;20691;-75
2021/04/07 00:05:13;;;;;;;22.33;21.13;;;1.60;82.70;;;;;;5133154;27;20245;-75
2021/04/07 00:07:39;;;;;;;22.50;21.08;;;1.60;82.60;;;;;;5132232;27;20198;-75
2021/04/07 00:10:08;;;;;;;21.95;20.75;;;1.50;82.70;;;;;;5133169;27;20221;-75
2021/04/07 00:12:35;;;;;;;1999.90;400.90;;;1.60;82.70;;;;;;5133019;27;20627;-76
2021/04/07 00:15:04;;;;;;;21.90;20.45;;;1.50;87.60;;;;;;5133349;28;20204;-76
2021/04/07 00:17:30;;;;;;;43.47;23.05;;;1.60;84.10;;;;;;5132728;28;20544;-75
2021/04/07 00:19:57;;;;;;;20.95;19.65;;;1.40;83.80;;;;;;5133086;28;20218;-76
2021/04/07 00:22:23;;;;;;;20.40;19.38;;;1.40;88.20;;;;;;5133172;28;20277;-76
2021/04/07 00:24:49;;;;;;;21.73;20.45;;;1.40;87.30;;;;;;5133161;27;20288;-75
2021/04/07 00:27:18;;;;;;;23.77;21.88;;;1.40;85.50;;;;;;5132634;28;20194;-75
2021/04/07 00:29:44;;;;;;;30.98;22.13;;;1.40;85.30;;;;;;5132796;28;20262;-75
2021/04/07 00:32:11;;;;;;;20.67;19.48;;;1.40;86.50;;;;;;5132707;28;20214;-75
2021/04/07 00:34:38;;;;;;;21.02;19.83;;;1.50;89.30;;;;;;5133097;27;20690;-75
2021/04/07 00:37:04;;;;;;;324.67;53.20;;;1.60;87.10;;;;;;5132395;28;20190;-75
2021/04/07 00:39:30;;;;;;;20.73;19.00;;;1.60;89.90;;;;;;5132664;28;20616;-77
2021/04/07 00:42:03;;;;;;;20.90;19.70;;;1.60;88.40;;;;;;5132941;27;20282;-76
2021/04/07 00:44:29;;;;;;;20.35;19.35;;;1.70;86.70;;;;;;5133026;28;20301;-75
2021/04/07 00:46:55;;;;;;;20.77;19.50;;;1.70;85.50;;;;;;5132429;27;20562;-75
2021/04/07 00:49:23;;;;;;;21.17;19.98;;;1.80;84.30;;;;;;5132855;27;20222;-76
2021/04/07 00:51:50;;;;;;;21.73;20.52;;;1.70;84.30;;;;;;5132615;28;20304;-75
2021/04/07 00:54:17;;;;;;;21.90;20.77;;;1.70;84.20;;;;;;5133005;28;20205;-75
2021/04/07 00:56:44;;;;;;;37.40;21.80;;;1.80;83.00;;;;;;5132236;28;20195;-75
2021/04/07 00:59:12;;;;;;;691.03;96.47;;;1.80;84.90;;;;;;5132633;28;20201;-76
2021/04/07 01:01:38;;;;;;;23.25;21.20;;;1.80;86.40;;;;;;5132740;28;20281;-75
2021/04/07 01:04:05;;;;;;;496.45;65.72;;;1.80;85.30;;;;;;5132717;28;20199;-75
2021/04/07 01:06:34;;;;;;;21.13;19.70;;;1.80;86.70;;;;;;5132066;28;20194;-76
2021/04/07 01:09:01;;;;;;;21.42;20.23;;;1.80;88.00;;;;;;5132319;27;20199;-76
2021/04/07 01:11:27;;;;;;;22.30;21.10;;;1.70;84.20;;;;;;5134686;27;20218;-76
2021/04/07 01:13:54;;;;;;;29.73;21.02;;;1.70;83.20;;;;;;5136095;27;20280;-75
2021/04/07 01:16:21;;;;;;;21.83;20.73;;;1.60;86.40;;;;;;5135957;27;20254;-75
2021/04/07 01:18:47;;;;;;;22.70;21.50;;;1.60;83.80;;;;;;5136461;27;20262;-76
2021/04/07 01:21:14;;;;;;;21.77;20.67;;;1.60;82.60;;;;;;5136450;27;20681;-75
2021/04/07 01:23:44;;;;;;;23.55;21.83;;;1.60;81.80;;;;;;5136259;27;20284;-77
2021/04/07 01:26:11;;;;;;;21.50;20.23;;;1.40;85.40;;;;;;5135706;27;20198;-75
2021/04/07 01:28:37;;;;;;;19.45;18.23;;;1.30;85.70;;;;;;5136392;27;20221;-76
2021/04/07 01:31:04;;;;;;;21.38;20.25;;;1.30;92.00;;;;;;5136007;27;20214;-75
2021/04/07 01:33:30;;;;;;;22.30;21.20;;;1.40;84.10;;;;;;5135967;27;20227;-76
2021/04/07 01:35:57;;;;;;;23.40;22.02;;;1.40;81.50;;;;;;5135546;27;20604;-75
2021/04/07 01:38:23;;;;;;;21.33;20.10;;;1.30;81.60;;;;;;5135865;27;20221;-75
2021/04/07 01:40:52;;;;;;;20.98;19.58;;;1.20;83.10;;;;;;5135926;27;20214;-75
2021/04/07 01:43:20;;;;;;;22.00;20.60;;;1.20;84.00;;;;;;5136021;27;20191;-75
2021/04/07 01:45:47;;;;;;;22.52;21.23;;;1.30;84.40;;;;;;5135239;27;20678;-75
2021/04/07 01:48:16;;;;;;;22.75;21.13;;;1.20;84.10;;;;;;5135886;27;20284;-75
2021/04/07 01:50:44;;;;;;;22.13;20.83;;;1.20;82.90;;;;;;5135733;27;20218;-75
2021/04/07 01:53:11;;;;;;;22.38;21.13;;;1.20;82.30;;;;;;5135481;27;20301;-75
2021/04/07 01:55:38;;;;;;;21.52;20.33;;;1.00;82.80;;;;;;5135227;27;20783;-75
2021/04/07 01:58:05;;;;;;;22.70;21.13;;;1.00;83.20;;;;;;5135550;27;20233;-75
2021/04/07 02:00:32;;;;;;;21.70;20.50;;;1.20;81.90;;;;;;5135577;27;20612;-75
2021/04/07 02:03:01;;;;;;;22.02;20.55;;;1.20;84.30;;;;;;5135577;27;20200;-75
2021/04/07 02:05:28;;;;;;;22.90;21.20;;;1.10;83.20;;;;;;5134837;27;20197;-76
2021/04/07 02:07:54;;;;;;;21.77;20.52;;;1.10;83.10;;;;;;5134723;27;20204;-75
2021/04/07 02:10:21;;;;;;;23.27;21.08;;;1.10;82.80;;;;;;5135268;27;20301;-75
2021/04/07 02:12:51;;;;;;;22.13;20.83;;;1.10;83.80;;;;;;5135176;27;20271;-76
2021/04/07 02:15:19;;;;;;;22.60;21.05;;;1.10;85.00;;;;;;5135480;27;20202;-74
2021/04/07 02:17:46;;;;;;;22.77;21.48;;;1.10;81.80;;;;;;5135081;27;20278;-75
2021/04/07 02:20:13;;;;;;;23.88;22.45;;;1.00;81.60;;;;;;5134934;27;20297;-74
2021/04/07 02:22:40;;;;;;;23.48;21.90;;;1.10;81.50;;;;;;5134242;27;20280;-74
2021/04/07 02:25:08;;;;;;;24.42;22.60;;;1.10;81.40;;;;;;5135221;27;20280;-75
2021/04/07 02:27:35;;;;;;;24.23;22.73;;;1.00;81.20;;;;;;5134578;27;20193;-75
2021/04/07 02:30:04;;;;;;;24.85;23.05;;;0.90;81.10;;;;;;5135067;27;20221;-75
2021/04/07 02:32:31;;;;;;;22.95;21.42;;;0.90;81.40;;;;;;5134773;27;20213;-75
2021/04/07 02:34:58;;;;;;;21.92;20.63;;;0.90;81.10;;;;;;5134613;27;20212;-74
2021/04/07 02:37:24;;;;;;;21.95;20.55;;;0.90;84.20;;;;;;5134527;27;20297;-75
2021/04/07 02:39:50;;;;;;;23.65;22.25;;;0.80;84.70;;;;;;5134643;27;20221;-75
2021/04/07 02:42:21;;;;;;;23.00;21.70;;;0.90;83.30;;;;;;5134741;27;20190;-75
2021/04/07 02:44:48;;;;;;;712.05;103.93;;;0.90;81.90;;;;;;5134641;27;20253;-75
2021/04/07 02:47:15;;;;;;;21.88;20.65;;;0.90;87.60;;;;;;5134102;27;20567;-75
2021/04/07 02:49:42;;;;;;;25.60;24.02;;;0.90;86.90;;;;;;5134559;27;20770;-76
2021/04/07 02:52:08;;;;;;;25.15;23.58;;;1.00;83.10;;;;;;5134498;27;20305;-74
2021/04/07 02:54:35;;;;;;;24.35;22.75;;;0.90;81.20;;;;;;5134670;27;20680;-75
2021/04/07 02:57:04;;;;;;;24.42;23.02;;;1.00;81.50;;;;;;5134101;27;20226;-75
2021/04/07 02:59:31;;;;;;;23.42;21.92;;;0.90;80.50;;;;;;5134271;27;20214;-75
2021/04/07 03:01:57;;;;;;;22.88;21.50;;;1.00;80.10;;;;;;5134374;27;20196;-75
2021/04/07 03:04:23;;;;;;;87.45;27.90;;;1.10;82.30;;;;;;5134359;27;20285;-75
2021/04/07 03:06:51;;;;;;;25.13;23.52;;;1.10;81.50;;;;;;5133193;27;20194;-75
2021/04/07 03:09:18;;;;;;;24.95;23.45;;;1.10;80.80;;;;;;5133238;27;20193;-74
2021/04/07 03:11:44;;;;;;;23.90;22.50;;;1.10;80.10;;;;;;5134117;27;20698;-76
2021/04/07 03:14:10;;;;;;;23.88;22.38;;;1.20;80.30;;;;;;5133842;27;20202;-75
2021/04/07 03:16:37;;;;;;;25.70;24.00;;;1.30;80.50;;;;;;5133241;27;20203;-75
2021/04/07 03:19:03;;;;;;;23.80;22.33;;;1.30;80.40;;;;;;5134017;27;20225;-75
2021/04/07 03:21:30;;;;;;;25.45;23.65;;;1.30;80.10;;;;;;5133952;27;20198;-74
2021/04/07 03:23:57;;;;;;;24.52;22.92;;;1.30;78.90;;;;;;5134059;27;20205;-75
2021/04/07 03:26:24;;;;;;;24.05;22.40;;;1.30;79.00;;;;;;5133303;27;20663;-75
2021/04/07 03:28:50;;;;;;;27.15;25.27;;;1.40;78.60;;;;;;5133964;27;20262;-75
2021/04/07 03:31:17;;;;;;;23.85;22.35;;;1.20;78.90;;;;;;5133541;27;20228;-76
2021/04/07 03:33:43;;;;;;;26.65;24.65;;;1.10;78.20;;;;;;5133549;27;20707;-74
2021/04/07 03:36:11;;;;;;;24.90;23.13;;;1.20;78.50;;;;;;5133373;27;20280;-75
2021/04/07 03:38:37;;;;;;;24.02;22.38;;;1.30;78.70;;;;;;5133600;27;20742;-76
2021/04/07 03:41:05;;;;;;;26.45;24.92;;;1.30;78.20;;;;;;5133461;27;20222;-79
2021/04/07 03:43:31;;;;;;;24.20;22.75;;;1.30;77.50;;;;;;5133701;27;20746;-76
2021/04/07 03:45:59;;;;;;;24.52;23.10;;;1.20;77.50;;;;;;5132965;27;20281;-78
2021/04/07 03:48:28;;;;;;;24.48;23.00;;;1.30;77.60;;;;;;5133725;27;20221;-75
2021/04/07 03:50:55;;;;;;;24.15;22.65;;;1.30;77.90;;;;;;5133376;27;20218;-75
2021/04/07 03:53:22;;;;;;;24.80;23.20;;;1.40;78.30;;;;;;5133299;27;20300;-75
2021/04/07 03:55:51;;;;;;;22.65;21.25;;;1.30;77.50;;;;;;5133030;27;20239;-75
2021/04/07 03:58:19;;;;;;;26.17;24.42;;;1.20;78.10;;;;;;5133256;27;20236;-76
2021/04/07 04:00:46;;;;;;;24.70;23.20;;;1.30;78.00;;;;;;5133380;27;20222;-76
2021/04/07 04:03:13;;;;;;;24.08;22.50;;;1.30;78.30;;;;;;5133552;27;20200;-75
2021/04/07 04:05:40;;;;;;;23.17;21.88;;;1.40;78.10;;;;;;5132870;27;20202;-75
2021/04/07 04:08:07;;;;;;;23.73;22.10;;;1.40;78.70;;;;;;5133027;27;20190;-76
2021/04/07 04:10:34;;;;;;;22.60;21.20;;;1.40;77.40;;;;;;5133669;27;20214;-75
2021/04/07 04:13:01;;;;;;;25.25;23.58;;;1.50;78.70;;;;;;5132891;27;20245;-76
2021/04/07 04:15:29;;;;;;;23.48;21.92;;;1.50;76.90;;;;;;5132975;27;20201;-76
2021/04/07 04:17:55;;;;;;;24.50;23.05;;;1.50;77.20;;;;;;5133308;28;20288;-75
2021/04/07 04:20:22;;;;;;;22.38;21.13;;;1.50;76.90;;;;;;5133082;28;20585;-75
2021/04/07 04:22:49;;;;;;;24.15;22.65;;;1.60;77.30;;;;;;5133194;28;20189;-75
2021/04/07 04:25:19;;;;;;;23.70;22.10;;;1.50;75.90;;;;;;5132992;27;20225;-75
2021/04/07 04:27:46;;;;;;;23.48;22.08;;;1.40;76.70;;;;;;5132673;28;20194;-75
2021/04/07 04:30:15;;;;;;;22.85;21.48;;;1.40;77.30;;;;;;5133125;28;20296;-75
2021/04/07 04:32:43;;;;;;;24.88;23.02;;;1.40;77.60;;;;;;5133132;27;20654;-75
2021/04/07 04:35:11;;;;;;;25.20;23.60;;;1.40;77.20;;;;;;5132773;28;20339;-75
2021/04/07 04:37:37;;;;;;;24.95;23.20;;;1.40;76.60;;;;;;5132524;28;20288;-76
2021/04/07 04:40:06;;;;;;;24.50;22.70;;;1.50;77.00;;;;;;5132583;28;20649;-76
2021/04/07 04:42:32;;;;;;;25.88;24.27;;;1.50;76.10;;;;;;5132968;27;20196;-78
2021/04/07 04:44:59;;;;;;;24.70;23.05;;;1.40;76.10;;;;;;5133375;27;20198;-76
2021/04/07 04:47:25;;;;;;;24.58;23.00;;;1.40;75.90;;;;;;5136335;27;20200;-76
2021/04/07 04:49:53;;;;;;;25.10;23.50;;;1.40;76.10;;;;;;5137256;27;20766;-75
2021/04/07 04:52:20;;;;;;;23.05;21.70;;;1.50;75.80;;;;;;5136792;27;20624;-76
2021/04/07 04:54:47;;;;;;;23.55;21.88;;;1.50;75.60;;;;;;5136851;27;20201;-76
2021/04/07 04:57:14;;;;;;;23.35;21.70;;;1.50;75.00;;;;;;5136304;27;20197;-76
2021/04/07 04:59:40;;;;;;;26.23;24.75;;;1.50;75.00;;;;;;5136630;27;20218;-77
2021/04/07 05:02:07;;;;;;;26.48;24.75;;;1.50;75.50;;;;;;5136840;27;20229;-76
2021/04/07 05:04:33;;;;;;;26.23;24.48;;;1.40;75.20;;;;;;5136789;27;20339;-76
2021/04/07 05:07:00;;;;;;;23.83;22.17;;;1.40;75.10;;;;;;5135883;27;20266;-77
2021/04/07 05:09:27;;;;;;;25.10;23.55;;;1.40;74.90;;;;;;5136418;27;20218;-78
2021/04/07 05:11:53;;;;;;;24.95;23.42;;;1.40;75.60;;;;;;5136822;27;20217;-75
2021/04/07 05:14:20;;;;;;;27.27;25.38;;;1.60;76.10;;;;;;5136157;27;20281;-76
2021/04/07 05:16:46;;;;;;;24.90;23.30;;;1.60;74.80;;;;;;5136072;27;20280;-76
2021/04/07 05:19:13;;;;;;;25.40;23.67;;;1.60;74.00;;;;;;5136350;27;20194;-79
2021/04/07 05:21:40;;;;;;;24.88;22.73;;;1.50;73.40;;;;;;5136104;27;20193;-76
2021/04/07 05:24:08;;;;;;;24.83;23.25;;;1.60;74.40;;;;;;5136521;27;20197;-76
2021/04/07 05:26:35;;;;;;;24.60;22.50;;;1.60;74.90;;;;;;5135980;27;20193;-76
2021/04/07 05:29:02;;;;;;;23.50;21.90;;;1.70;74.40;;;;;;5136809;27;20280;-75
2021/04/07 05:31:28;;;;;;;24.38;22.77;;;1.80;73.80;;;;;;5136183;27;20201;-76
2021/04/07 05:33:55;;;;;;;25.73;24.08;;;1.80;73.50;;;;;;5135890;27;20611;-75
2021/04/07 05:36:21;;;;;;;24.60;23.00;;;1.80;73.60;;;;;;5135782;27;20598;-75
2021/04/07 05:38:48;;;;;;;25.10;23.27;;;1.80;73.10;;;;;;5136102;27;20634;-75
2021/04/07 05:41:16;;;;;;;24.10;22.50;;;1.80;73.20;;;;;;5135861;27;20226;-75
2021/04/07 05:43:43;;;;;;;25.20;23.60;;;1.70;72.70;;;;;;5135815;27;20284;-75
2021/04/07 05:46:12;;;;;;;24.48;22.98;;;1.70;72.80;;;;;;5135307;27;20707;-74
2021/04/07 05:48:38;;;;;;;23.98;22.58;;;1.80;73.90;;;;;;5135754;27;20277;-75
2021/04/07 05:51:05;;;;;;;27.52;25.95;;;1.70;72.30;;;;;;5135558;27;20694;-75
2021/04/07 05:53:31;;;;;;;25.60;24.00;;;1.80;72.00;;;;;;5135611;27;20544;-76
2021/04/07 05:55:58;;;;;;;22.63;21.20;;;1.80;71.50;;;;;;5135270;27;20197;-75
2021/04/07 05:58:28;;;;;;;23.27;21.67;;;1.70;71.50;;;;;;5134383;27;20202;-75
2021/04/07 06:00:54;;;;;;;29.15;27.45;;;1.60;72.20;;;;;;5135626;27;20225;-75
2021/04/07 06:03:21;;;;;;;26.88;25.25;;;1.60;71.90;;;;;;5135584;27;20225;-76
2021/04/07 06:05:49;;;;;;;25.10;23.35;;;1.60;71.80;;;;;;5134920;27;20285;-77
2021/04/07 06:08:16;;;;;;;25.73;23.98;;;1.70;71.40;;;;;;5135010;27;20190;-76
2021/04/07 06:10:44;;;;;;;27.17;25.30;;;1.70;71.40;;;;;;5135410;27;20213;-76
2021/04/07 06:13:11;;;;;;;26.35;24.48;;;1.70;70.90;;;;;;5135193;27;20224;-76
2021/04/07 06:15:39;;;;;;;27.05;25.65;;;1.80;71.20;;;;;;5134836;27;20734;-76
2021/04/07 06:18:07;;;;;;;25.48;23.70;;;1.70;71.20;;;;;;5135228;27;20197;-76
2021/04/07 06:20:35;;;;;;;27.40;25.98;;;1.80;71.30;;;;;;5135390;27;20272;-75
2021/04/07 06:23:04;;;;;;;25.05;23.65;;;1.90;69.90;;;;;;5135240;27;20186;-78
2021/04/07 06:25:32;;;;;;;26.13;24.52;;;1.90;69.90;;;;;;5134973;27;20558;-75
2021/04/07 06:28:00;;;;;;;24.48;22.88;;;2.00;69.20;;;;;;5135035;27;20194;-76
2021/04/07 06:30:41;;;;;;;25.42;23.95;;;2.10;69.70;;;;;;5135006;27;20242;-75
2021/04/07 06:33:09;;;;;;;26.25;24.73;;;2.30;68.90;;;;;;5134988;27;20316;-76
2021/04/07 06:35:35;;;;;;;25.33;23.83;;;2.30;70.30;;;;;;5134398;27;20236;-75
2021/04/07 06:38:02;;;;;;;23.50;22.00;;;2.40;68.20;;;;;;5134802;27;20288;-77
2021/04/07 06:40:29;;;;;;;23.05;21.85;;;2.70;68.20;;;;;;5134885;27;20287;-76
2021/04/07 06:42:57;;;;;;;25.42;23.83;;;2.90;66.00;;;;;;5134785;27;20711;-76
2021/04/07 06:45:23;;;;;;;26.17;24.23;;;2.90;65.70;;;;;;5134573;27;20206;-76
2021/04/07 06:47:50;;;;;;;25.42;23.63;;;3.10;65.90;;;;;;5134401;27;20198;-76
2021/04/07 06:50:18;;;;;;;25.00;23.45;;;3.10;65.10;;;;;;5134477;27;20263;-76
2021/04/07 06:52:45;;;;;;;23.83;22.38;;;3.00;67.20;;;;;;5134768;27;20589;-76
2021/04/07 06:55:15;;;;;;;23.10;21.60;;;3.20;65.20;;;;;;5134439;27;20730;-76
2021/04/07 06:57:42;;;;;;;24.67;23.27;;;3.00;64.60;;;;;;5133980;27;20207;-75
2021/04/07 07:00:09;;;;;;;24.85;23.15;;;3.10;66.00;;;;;;5134277;27;20220;-75
2021/04/07 07:02:36;;;;;;;23.27;21.75;;;3.30;66.10;;;;;;5134418;27;20197;-75
2021/04/07 07:05:03;;;;;;;27.45;25.85;;;3.30;65.90;;;;;;5134234;27;20195;-75
2021/04/07 07:07:30;;;;;;;24.05;22.70;;;3.40;64.60;;;;;;5133369;27;20661;-75
2021/04/07 07:09:57;;;;;;;24.67;22.98;;;3.40;64.50;;;;;;5133572;27;20722;-75
2021/04/07 07:12:26;;;;;;;24.98;23.30;;;3.20;64.20;;;;;;5133928;27;20219;-75
2021/04/07 07:14:53;;;;;;;26.23;24.65;;;3.30;63.70;;;;;;5134206;27;20286;-75
2021/04/07 07:17:27;;;;;;;26.77;24.88;;;3.30;63.10;;;;;;5133707;27;20223;-75
2021/04/07 07:19:53;;;;;;;26.48;24.73;;;3.30;64.30;;;;;;5133817;27;20732;-75
2021/04/07 07:22:22;;;;;;;24.52;23.02;;;3.30;63.00;;;;;;5133806;27;20886;-75
2021/04/07 07:24:53;;;;;;;28.67;27.38;;;3.30;62.80;;;;;;5133859;27;20199;-75
2021/04/07 07:27:20;;;;;;;24.35;22.75;;;3.20;62.90;;;;;;5133494;27;20203;-79
2021/04/07 07:29:55;;;;;;;28.13;26.67;;;3.20;62.30;;;;;;5133969;27;20563;-75
2021/04/07 07:32:32;;;;;;;26.25;24.55;;;3.20;62.90;;;;;;5133704;27;20587;-75
2021/04/07 07:35:10;;;;;;;25.40;23.90;;;3.30;63.60;;;;;;5133547;27;20202;-75
2021/04/07 07:37:37;;;;;;;24.50;23.15;;;3.40;62.60;;;;;;5133409;27;20222;-75
2021/04/07 07:40:07;;;;;;;23.63;22.13;;;3.20;62.70;;;;;;5133608;27;20220;-75
2021/04/07 07:42:34;;;;;;;25.27;23.40;;;3.20;63.30;;;;;;5133571;27;20704;-75
2021/04/07 07:45:01;;;;;;;24.40;22.70;;;3.50;63.40;;;;;;5133746;27;20286;-75
2021/04/07 07:47:30;;;;;;;25.67;23.92;;;3.80;62.30;;;;;;5133028;27;20209;-75
2021/04/07 07:49:59;;;;;;;25.05;23.67;;;4.00;60.60;;;;;;5133297;27;20276;-76
2021/04/07 07:52:27;;;;;;;24.80;23.50;;;3.80;61.20;;;;;;5133611;27;20224;-76
2021/04/07 07:54:54;;;;;;;25.05;23.42;;;3.90;61.90;;;;;;5133596;27;20241;-75
2021/04/07 07:57:21;;;;;;;24.42;22.88;;;4.00;60.90;;;;;;5133161;27;20235;-76
2021/04/07 07:59:48;;;;;;;24.13;22.83;;;3.80;60.30;;;;;;5133634;27;20371;-76
2021/04/07 08:02:15;;;;;;;26.00;24.15;;;3.80;61.00;;;;;;5133475;27;20228;-76
2021/04/07 08:04:45;;;;;;;25.38;23.55;;;3.70;60.80;;;;;;5133284;27;20200;-76
2021/04/07 08:07:13;;;;;;;23.67;22.27;;;3.70;62.50;;;;;;5132478;27;20283;-74
2021/04/07 08:09:40;;;;;;;24.55;22.92;;;3.90;61.20;;;;;;5133420;27;20278;-75
2021/04/07 08:12:10;;;;;;;24.55;23.00;;;3.90;60.90;;;;;;5133264;27;20303;-76
2021/04/07 08:14:39;;;;;;;23.77;22.35;;;3.70;61.70;;;;;;5133063;27;20216;-76
2021/04/07 08:17:06;;;;;;;24.55;23.05;;;3.70;61.90;;;;;;5132608;27;20200;-76
2021/04/07 08:19:34;;;;;;;25.23;24.02;;;3.80;63.30;;;;;;5133080;27;20224;-75
2021/04/07 08:22:02;;;;;;;23.42;22.08;;;4.10;61.70;;;;;;5132772;27;20276;-76
2021/04/07 08:24:30;;;;;;;25.75;24.45;;;4.10;63.00;;;;;;5133058;28;20283;-76
2021/04/07 08:26:57;;;;;;;24.63;23.23;;;4.30;61.60;;;;;;5132433;28;20309;-79
2021/04/07 08:29:24;;;;;;;26.38;24.73;;;4.50;61.00;;;;;;5133025;27;20248;-76
2021/04/07 08:31:52;;;;;;;25.38;24.02;;;4.50;60.80;;;;;;5133018;28;20222;-76
2021/04/07 08:34:22;;;;;;;25.63;24.13;;;4.50;60.90;;;;;;5132969;28;20202;-76
2021/04/07 08:36:49;;;;;;;24.98;23.48;;;4.50;61.20;;;;;;5132673;28;20198;-76
2021/04/07 08:39:17;;;;;;;24.95;23.65;;;4.40;61.60;;;;;;5133049;28;20594;-76
2021/04/07 08:41:46;;;;;;;23.00;21.70;;;4.20;62.80;;;;;;5133045;28;20554;-77
2021/04/07 08:44:12;;;;;;;25.88;24.48;;;4.30;63.50;;;;;;5132985;28;20193;-76
2021/04/07 08:46:41;;;;;;;24.80;23.20;;;4.40;63.80;;;;;;5132447;28;20198;-76
2021/04/07 08:49:10;;;;;;;25.48;24.08;;;4.20;62.80;;;;;;5132930;28;20198;-76
2021/04/07 08:51:37;;;;;;;24.05;22.52;;;4.30;63.40;;;;;;5132730;28;20589;-77
2021/04/07 08:54:03;;;;;;;23.98;22.58;;;4.30;63.60;;;;;;5132822;28;20201;-76
2021/04/07 08:56:32;;;;;;;24.20;22.58;;;4.60;65.70;;;;;;5132286;27;20195;-76
2021/04/07 08:59:00;;;;;;;27.88;26.33;;;4.80;61.80;;;;;;5133005;28;20197;-75
2021/04/07 09:01:34;;;;;;;26.27;24.77;;;5.00;61.60;;;;;;5132794;28;20246;-76
2021/04/07 09:04:10;;;;;;;28.58;27.10;;;5.10;60.40;;;;;;5132837;28;20333;-76
2021/04/07 09:06:38;;;;;;;25.30;23.70;;;5.00;61.90;;;;;;5132381;28;20201;-76
2021/04/07 09:09:06;;;;;;;24.95;23.15;;;4.70;61.90;;;;;;5132232;27;20220;-75
2021/04/07 09:11:35;;;;;;;23.55;22.15;;;4.50;63.60;;;;;;5132813;27;20287;-76
2021/04/07 09:14:04;;;;;;;24.77;23.38;;;3.80;66.70;;;;;;5132737;27;20197;-75
2021/04/07 09:16:39;;;;;;;25.00;23.60;;;3.60;69.30;;;;;;5132135;27;20200;-75
2021/04/07 09:19:18;;;;;;;25.92;24.38;;;3.70;68.80;;;;;;5132534;27;20204;-75
2021/04/07 09:21:56;;;;;;;25.05;23.33;;;4.00;66.80;;;;;;5132838;28;20282;-76
2021/04/07 09:24:26;;;;;;;23.73;22.52;;;4.10;68.00;;;;;;5132766;28;20194;-76
2021/04/07 09:26:54;;;;;;;24.85;23.55;;;4.30;67.40;;;;;;5132122;28;20286;-75
2021/04/07 09:29:20;;;;;;;25.02;23.73;;;4.30;66.20;;;;;;5132543;27;20225;-75
2021/04/07 09:31:49;;;;;;;23.52;22.23;;;4.50;67.60;;;;;;5133760;27;20190;-76
2021/04/07 09:34:16;;;;;;;22.85;21.50;;;4.80;67.40;;;;;;5136023;27;20663;-75
2021/04/07 09:36:45;;;;;;;24.48;23.17;;;4.90;66.50;;;;;;5135699;27;20286;-76
2021/04/07 09:39:14;;;;;;;26.52;24.92;;;5.00;64.30;;;;;;5136197;27;20200;-76
2021/04/07 09:41:44;;;;;;;27.27;25.70;;;4.90;60.70;;;;;;5136043;27;20209;-76
2021/04/07 09:44:12;;;;;;;23.80;22.20;;;4.60;62.40;;;;;;5136025;27;20231;-76
2021/04/07 09:46:39;;;;;;;25.00;23.60;;;4.60;62.60;;;;;;5135452;27;20209;-77
2021/04/07 09:49:07;;;;;;;25.95;24.30;;;4.70;61.30;;;;;;5135917;27;20201;-76
2021/04/07 09:51:35;;;;;;;25.50;24.00;;;4.90;61.30;;;;;;5135964;27;20198;-76
2021/04/07 09:54:17;;;;;;;24.90;23.50;;;5.10;60.00;;;;;;5136258;27;20234;-76
2021/04/07 09:56:53;;;;;;;23.58;21.92;;;5.30;60.40;;;;;;5135209;27;20198;-77
2021/04/07 09:59:29;;;;;;;25.65;24.20;;;5.40;57.40;;;;;;5135747;27;20229;-76
2021/04/07 10:01:56;;;;;;;25.60;24.20;;;5.20;57.40;;;;;;5135965;27;20623;-76
2021/04/07 10:04:26;;;;;;;22.63;21.42;;;5.20;57.70;;;;;;5135715;27;20251;-76
2021/04/07 10:06:52;;;;;;;23.50;21.83;;;5.10;57.80;;;;;;5135075;27;20239;-77
2021/04/07 10:09:27;;;;;;;24.90;23.30;;;5.10;57.90;;;;;;5135032;27;20289;-78
2021/04/07 10:11:54;;;;;;;23.45;22.10;;;5.40;58.50;;;;;;5135469;27;20197;-76
2021/04/07 10:14:21;;;;;;;24.60;23.10;;;5.80;56.70;;;;;;5135196;27;20216;-76
2021/04/07 10:16:47;;;;;;;22.98;21.67;;;6.00;55.70;;;;;;5134930;27;20202;-76
2021/04/07 10:19:14;;;;;;;23.90;22.50;;;6.10;56.20;;;;;;5135623;27;20196;-76
2021/04/07 10:21:43;;;;;;;23.67;22.25;;;5.90;54.40;;;;;;5135035;27;20237;-77
2021/04/07 10:24:13;;;;;;;23.70;22.40;;;5.20;56.70;;;;;;5135292;27;20220;-76
2021/04/07 10:26:42;;;;;;;23.77;22.30;;;4.90;58.70;;;;;;5134498;27;20242;-76
2021/04/07 10:29:09;;;;;;;23.25;21.95;;;4.50;61.20;;;;;;5135053;27;20284;-76
2021/04/07 10:31:36;;;;;;;24.10;22.58;;;4.40;62.30;;;;;;5135066;27;20190;-76
2021/04/07 10:34:07;;;;;;;27.95;26.17;;;4.30;63.10;;;;;;5134713;27;20223;-76
2021/04/07 10:36:34;;;;;;;25.00;23.45;;;4.40;63.10;;;;;;5134411;27;20800;-76
2021/04/07 10:39:11;;;;;;;24.15;22.85;;;4.60;62.40;;;;;;5134846;27;20689;-76
2021/04/07 10:41:38;;;;;;;23.52;22.15;;;4.80;62.20;;;;;;5134976;27;20283;-76
2021/04/07 10:44:06;;;;;;;24.50;22.90;;;5.00;62.70;;;;;;5134074;27;20190;-76
2021/04/07 10:46:33;;;;;;;23.25;21.92;;;5.30;61.40;;;;;;5134187;27;20208;-76
2021/04/07 10:48:59;;;;;;;23.98;22.67;;;5.20;58.30;;;;;;5134533;27;20757;-77
2021/04/07 10:51:29;;;;;;;24.17;22.73;;;5.10;60.20;;;;;;5134820;27;20276;-76
2021/04/07 10:53:57;;;;;;;23.08;21.77;;;5.50;58.00;;;;;;5134626;27;20214;-77
2021/04/07 10:56:25;;;;;;;24.58;23.20;;;5.60;57.80;;;;;;5133875;27;20229;-76
2021/04/07 10:58:56;;;;;;;24.60;22.98;;;5.90;58.20;;;;;;5134532;27;20216;-76
2021/04/07 11:01:31;;;;;;;25.85;23.95;;;6.20;55.70;;;;;;5134497;27;20225;-76
2021/04/07 11:03:58;;;;;;;25.02;23.50;;;6.40;56.00;;;;;;5134346;27;20199;-76
2021/04/07 11:06:25;;;;;;;23.73;22.40;;;6.50;55.00;;;;;;5133745;27;20341;-76
2021/04/07 11:08:52;;;;;;;24.73;22.73;;;6.60;54.20;;;;;;5133810;27;20683;-76
2021/04/07 11:11:24;;;;;;;22.92;21.73;;;6.60;52.30;;;;;;5134250;27;20672;-76
2021/04/07 11:13:51;;;;;;;24.67;23.27;;;6.60;52.60;;;;;;5134049;27;20304;-76
2021/04/07 11:16:17;;;;;;;24.08;22.67;;;6.40;52.60;;;;;;5133564;27;20209;-76
2021/04/07 11:18:46;;;;;;;24.55;23.05;;;6.20;53.10;;;;;;5134185;27;20248;-76
2021/04/07 11:21:14;;;;;;;23.65;22.35;;;6.20;53.30;;;;;;5133985;27;20217;-76
2021/04/07 11:23:41;;;;;;;25.50;23.90;;;5.90;53.30;;;;;;5134222;27;20212;-76
2021/04/07 11:26:08;;;;;;;23.65;22.17;;;5.70;54.90;;;;;;5133158;27;20205;-76
2021/04/07 11:28:35;;;;;;;23.95;22.52;;;5.90;55.30;;;;;;5133983;27;20281;-76
2021/04/07 11:31:05;;;;;;;24.77;23.27;;;6.30;54.80;;;;;;5133873;27;20641;-76
2021/04/07 11:33:44;;;;;;;26.20;24.80;;;6.60;53.50;;;;;;5133678;27;20220;-76
2021/04/07 11:36:21;;;;;;;23.60;22.30;;;6.70;52.80;;;;;;5133313;27;20284;-76
2021/04/07 11:38:51;;;;;;;23.50;22.05;;;6.70;52.40;;;;;;5133868;27;20193;-76
2021/04/07 11:46:48;;;;;;;23.85;22.25;;;6.50;50.70;;;;;;5133292;27;20554;-76
2021/04/07 11:49:14;;;;;;;23.80;22.38;;;6.30;50.10;;;;;;5133639;27;20202;-76
2021/04/07 11:51:42;;;;;;;24.90;23.40;;;6.50;51.20;;;;;;5133667;27;20189;-76
2021/04/07 11:54:10;;;;;;;23.85;22.52;;;6.70;50.20;;;;;;5133694;27;20285;-76
2021/04/07 11:56:37;;;;;;;24.75;23.25;;;7.00;49.20;;;;;;5132641;27;20277;-76
2021/04/07 11:59:05;;;;;;;25.35;23.60;;;7.20;50.10;;;;;;5133778;27;20284;-76
2021/04/07 12:01:32;;;;;;;24.52;22.90;;;7.40;48.40;;;;;;5133623;27;20206;-76
2021/04/07 12:03:59;;;;;;;25.02;23.52;;;7.20;48.00;;;;;;5133629;27;20285;-76
2021/04/07 12:06:29;;;;;;;23.63;22.33;;;7.20;49.00;;;;;;5134306;27;20199;-77
2021/04/07 12:08:56;;;;;;;24.33;22.95;;;7.20;49.20;;;;;;5134759;27;20190;-76
2021/04/07 12:11:23;;;;;;;24.75;23.15;;;7.30;48.70;;;;;;5133783;27;20297;-76
2021/04/07 12:13:50;;;;;;;25.13;23.63;;;7.00;48.50;;;;;;5133280;27;20639;-76
2021/04/07 12:16:16;;;;;;;25.45;23.95;;;6.80;48.90;;;;;;5132582;27;20823;-77
2021/04/07 12:18:43;;;;;;;24.20;22.80;;;6.50;49.90;;;;;;5133177;28;20284;-75
2021/04/07 12:21:09;;;;;;;24.35;22.95;;;6.20;51.40;;;;;;5133228;28;20269;-75
2021/04/07 12:23:36;;;;;;;24.95;23.45;;;6.20;51.80;;;;;;5133264;27;20189;-76
2021/04/07 12:26:03;;;;;;;24.10;22.70;;;6.40;51.60;;;;;;5132765;27;20669;-75
2021/04/07 12:28:30;;;;;;;24.95;23.25;;;6.50;50.70;;;;;;5133063;28;20232;-75
2021/04/07 12:30:57;;;;;;;26.80;25.20;;;6.50;50.90;;;;;;5132926;28;20228;-75
2021/04/07 12:33:26;;;;;;;24.92;23.33;;;6.00;51.90;;;;;;5132824;27;20242;-75
2021/04/07 12:35:53;;;;;;;24.15;22.65;;;6.00;52.80;;;;;;5132568;28;20508;-75
2021/04/07 12:38:20;;;;;;;25.25;23.70;;;6.40;52.30;;;;;;5133158;28;20197;-76
2021/04/07 12:40:48;;;;;;;25.75;24.20;;;6.70;52.30;;;;;;5133045;28;20627;-76
2021/04/07 12:43:16;;;;;;;23.77;22.27;;;6.80;52.00;;;;;;5132909;28;20198;-75